Terminal Aerodrome Forecast
Issued by NWS

Home | Current Version | Previous Version | Graphics & Text | Print | Product List | Glossary On
Versions: 1 2 3 4 5 6 7 8 9 10 11 12 13 14 15
000
FTUS43 KEAX 180141 AAB
TAFSTJ
TAF AMD
KSTJ 180141Z 1802/1824 VRB03KT P6SM OVC011
      TEMPO 1802/1805 1/4SM FG
     FM180500 VRB03KT 5SM BR OVC014
      TEMPO 1807/1811 1SM BR OVC004
     FM181100 24005KT P6SM SCT005
      TEMPO 1811/1815 1SM BR
     FM181500 23010KT P6SM FEW020=

USA.gov is the U.S. government's official web portal to all federal, state and local government web resources and services.